createdAt,value
2018-06-12T00:00:42.467Z,28.23
2018-06-12T00:03:11.819Z,40.87
2018-06-12T00:05:41.207Z,27.60
2018-06-12T00:08:10.604Z,31.50
2018-06-12T00:10:39.968Z,35.03
2018-06-12T00:13:09.308Z,28.33
2018-06-12T00:15:38.761Z,33.43
2018-06-12T00:18:08.157Z,30.77
2018-06-12T00:20:37.463Z,26.93
2018-06-12T00:23:06.809Z,31.13
2018-06-12T00:25:36.208Z,36.50
2018-06-12T00:28:05.585Z,29.60
2018-06-12T00:30:34.990Z,37.10
2018-06-12T00:33:04.378Z,32.80
2018-06-12T00:35:33.764Z,30.00
2018-06-12T00:38:02.555Z,35.50
2018-06-12T00:40:31.977Z,37.47
2018-06-12T00:43:01.348Z,28.33
2018-06-12T00:45:30.781Z,38.93
2018-06-12T00:48:00.212Z,32.90
2018-06-12T00:50:29.611Z,37.53
2018-06-12T00:52:58.966Z,41.53
2018-06-12T00:55:28.394Z,35.90
2018-06-12T00:57:57.821Z,31.40
2018-06-12T01:00:27.165Z,37.37
2018-06-12T01:02:57.756Z,33.63
2018-06-12T01:05:27.091Z,34.20
2018-06-12T01:07:56.444Z,36.67
2018-06-12T01:10:25.823Z,30.37
2018-06-12T01:12:55.177Z,36.77
2018-06-12T01:15:24.539Z,27.70
2018-06-12T01:17:53.921Z,40.13
2018-06-12T01:20:23.303Z,34.57
2018-06-12T01:22:52.090Z,34.70
2018-06-12T01:25:21.503Z,31.10
2018-06-12T01:27:50.888Z,41.00
2018-06-12T01:30:20.294Z,34.87
2018-06-12T01:32:49.776Z,36.37
2018-06-12T01:35:19.103Z,37.63
2018-06-12T01:37:47.906Z,37.87
2018-06-12T01:40:17.304Z,31.40
2018-06-12T01:42:46.658Z,45.07
2018-06-12T01:45:16.006Z,41.40
2018-06-12T01:47:45.382Z,35.10
2018-06-12T01:50:14.660Z,46.73
2018-06-12T01:52:44.259Z,27.70
2018-06-12T01:55:13.637Z,44.93
2018-06-12T01:57:43.029Z,26.47
2018-06-12T02:00:12.388Z,40.03
2018-06-12T02:02:41.779Z,40.20
2018-06-12T02:05:11.115Z,29.80
2018-06-12T02:07:40.473Z,33.07
2018-06-12T02:10:09.856Z,45.27
2018-06-12T02:12:39.195Z,27.20
2018-06-12T02:15:08.551Z,27.40
2018-06-12T02:17:38.003Z,36.80
2018-06-12T02:20:07.399Z,33.77
2018-06-12T02:22:36.887Z,27.53
2018-06-12T02:25:06.602Z,29.27
2018-06-12T02:27:35.938Z,35.77
2018-06-12T02:30:05.429Z,38.90
2018-06-12T02:32:34.791Z,35.00
2018-06-12T02:35:04.244Z,39.17
2018-06-12T02:37:33.570Z,34.57
2018-06-12T02:40:02.910Z,28.10
2018-06-12T02:42:32.266Z,35.00
2018-06-12T02:45:01.593Z,32.83
2018-06-12T02:47:31.003Z,35.60
2018-06-12T02:50:00.411Z,32.97
2018-06-12T02:52:29.835Z,28.80
2018-06-12T02:54:59.277Z,36.77
2018-06-12T02:57:28.620Z,32.87
2018-06-12T02:59:57.980Z,26.07
2018-06-12T03:02:27.349Z,27.37
2018-06-12T03:04:56.673Z,30.40
2018-06-12T03:07:25.491Z,45.63
2018-06-12T03:09:54.876Z,65.07
2018-06-12T03:12:24.226Z,78.13
2018-06-12T03:14:53.590Z,70.30
2018-06-12T03:17:22.970Z,67.63
2018-06-12T03:19:52.319Z,57.53
2018-06-12T03:22:21.785Z,55.70
2018-06-12T03:24:51.202Z,45.17
2018-06-12T03:27:20.559Z,47.07
2018-06-12T03:29:49.393Z,40.77
2018-06-12T03:32:18.830Z,57.33
2018-06-12T03:34:48.165Z,39.70
2018-06-12T03:37:16.998Z,40.97
2018-06-12T03:39:46.367Z,35.53
2018-06-12T03:42:15.152Z,47.57
2018-06-12T03:44:45.433Z,36.37
2018-06-12T03:47:14.779Z,36.43
2018-06-12T03:49:44.102Z,36.27
2018-06-12T03:52:13.718Z,38.07
2018-06-12T03:54:43.090Z,34.70
2018-06-12T03:57:12.433Z,34.50
2018-06-12T03:59:41.814Z,37.40
2018-06-12T04:02:11.188Z,37.90
2018-06-12T04:04:40.593Z,35.60
2018-06-12T04:07:09.952Z,30.43
2018-06-12T04:09:39.333Z,35.10
2018-06-12T04:12:08.641Z,34.57
2018-06-12T04:14:38.077Z,23.13
2018-06-12T04:17:08.452Z,33.07
2018-06-12T04:19:37.839Z,38.43
2018-06-12T04:22:07.283Z,31.17
2018-06-12T04:24:36.691Z,30.67
2018-06-12T04:27:06.012Z,35.80
2018-06-12T04:29:35.435Z,32.53
2018-06-12T04:32:04.910Z,30.77
2018-06-12T04:34:34.363Z,44.43
2018-06-12T04:37:03.928Z,24.37
2018-06-12T04:39:33.368Z,33.83
2018-06-12T04:42:02.742Z,31.03
2018-06-12T04:44:32.096Z,35.30
2018-06-12T04:47:01.437Z,46.57
2018-06-12T04:49:30.780Z,35.13
2018-06-12T04:52:00.178Z,29.77
2018-06-12T04:54:29.561Z,28.93
2018-06-12T04:56:58.915Z,28.10
2018-06-12T04:59:28.304Z,26.97
2018-06-12T05:01:58.735Z,25.30
2018-06-12T05:04:28.101Z,32.43
2018-06-12T05:06:57.449Z,37.13
2018-06-12T05:09:26.823Z,30.80
2018-06-12T05:11:56.608Z,47.13
2018-06-12T05:14:25.938Z,26.70
2018-06-12T05:16:55.298Z,38.07
2018-06-12T05:19:24.660Z,36.13
2018-06-12T05:21:53.963Z,29.67
2018-06-12T05:24:23.342Z,33.50
2018-06-12T05:26:52.651Z,38.03
2018-06-12T05:29:21.993Z,42.17
2018-06-12T05:31:51.364Z,29.60
2018-06-12T05:34:20.776Z,28.50
2018-06-12T05:36:50.136Z,28.70
2018-06-12T05:39:19.535Z,44.20
2018-06-12T05:41:48.964Z,35.13
2018-06-12T05:44:18.422Z,31.17
2018-06-12T05:46:47.883Z,26.17
2018-06-12T05:49:17.244Z,40.87
2018-06-12T05:51:46.612Z,33.20
2018-06-12T05:54:15.946Z,30.60
2018-06-12T05:56:45.336Z,35.03
2018-06-12T05:59:14.706Z,28.47
2018-06-12T06:01:44.035Z,34.67
2018-06-12T06:04:12.854Z,27.53
2018-06-12T06:06:42.297Z,28.77
2018-06-12T06:09:11.636Z,36.73
2018-06-12T06:11:42.378Z,38.33
2018-06-12T06:14:11.767Z,35.83
2018-06-12T06:16:41.158Z,30.27
2018-06-12T06:19:10.646Z,23.03
2018-06-12T06:21:40.038Z,36.00
2018-06-12T06:24:09.910Z,29.43
2018-06-12T06:26:39.356Z,28.73
2018-06-12T06:29:08.878Z,34.40
2018-06-12T06:31:38.270Z,41.23
2018-06-12T06:34:07.750Z,33.73
2018-06-12T06:36:37.128Z,32.00
2018-06-12T06:39:08.095Z,35.15
2018-06-12T06:41:37.467Z,41.40
2018-06-12T06:44:06.813Z,36.53
2018-06-12T06:46:36.217Z,28.53
2018-06-12T06:49:05.891Z,48.80
2018-06-12T06:51:35.260Z,33.20
2018-06-12T06:54:04.719Z,47.00
2018-06-12T06:56:34.043Z,35.90
2018-06-12T06:59:03.381Z,40.03
2018-06-12T07:01:32.823Z,39.10
2018-06-12T07:04:02.147Z,37.20
2018-06-12T07:06:31.523Z,39.20
2018-06-12T07:09:01.392Z,33.50
2018-06-12T07:11:30.749Z,35.60
2018-06-12T07:14:00.137Z,32.97
2018-06-12T07:16:29.538Z,28.93
2018-06-12T07:18:58.923Z,37.93
2018-06-12T07:21:28.312Z,42.67
2018-06-12T07:23:57.698Z,43.00
2018-06-12T07:26:27.051Z,34.87
2018-06-12T07:28:56.430Z,43.27
2018-06-12T07:31:25.885Z,40.83
2018-06-12T07:33:55.206Z,47.60
2018-06-12T07:36:24.561Z,29.30
2018-06-12T07:38:53.903Z,34.73
2018-06-12T07:41:25.544Z,25.97
2018-06-12T07:43:54.946Z,46.87
2018-06-12T07:46:24.301Z,36.90
2018-06-12T07:48:53.697Z,38.37
2018-06-12T07:51:23.099Z,39.83
2018-06-12T07:53:52.472Z,39.30
2018-06-12T07:56:21.941Z,41.67
2018-06-12T07:58:51.320Z,43.10
2018-06-12T08:01:20.730Z,41.93
2018-06-12T08:03:50.206Z,34.13
2018-06-12T08:06:19.586Z,37.93
2018-06-12T08:08:48.971Z,37.13
2018-06-12T08:11:17.787Z,39.33
2018-06-12T08:13:47.139Z,35.37
2018-06-12T08:16:16.652Z,42.50
2018-06-12T08:18:46.010Z,38.43
2018-06-12T08:21:15.381Z,30.90
2018-06-12T08:23:44.593Z,40.50
2018-06-12T08:26:14.031Z,34.63
2018-06-12T08:28:43.494Z,37.87
2018-06-12T08:31:12.895Z,34.13
2018-06-12T08:33:42.309Z,34.67
2018-06-12T08:36:11.691Z,35.70
2018-06-12T08:38:41.128Z,27.70
2018-06-12T08:41:10.460Z,40.27
2018-06-12T08:43:39.960Z,39.30
2018-06-12T08:46:09.351Z,37.00
2018-06-12T08:48:38.710Z,33.70
2018-06-12T08:51:08.181Z,31.73
2018-06-12T08:53:37.576Z,42.00
2018-06-12T08:56:06.950Z,57.10
2018-06-12T08:58:37.424Z,35.70
2018-06-12T09:01:06.422Z,37.53
2018-06-12T09:03:35.473Z,40.50
2018-06-12T09:06:04.917Z,46.27
2018-06-12T09:08:34.316Z,31.57
2018-06-12T09:11:03.129Z,44.47
2018-06-12T09:13:32.521Z,41.57
2018-06-12T09:16:01.321Z,33.30
2018-06-12T09:18:31.997Z,16.03
2018-06-12T09:21:01.342Z,20.43
2018-06-12T09:23:30.774Z,20.20
2018-06-12T09:26:00.190Z,21.87
2018-06-12T09:28:29.567Z,18.33
2018-06-12T09:30:59.096Z,19.77
2018-06-12T09:33:28.511Z,17.50
2018-06-12T09:36:02.997Z,12.80
2018-06-12T09:38:32.368Z,21.77
2018-06-12T09:41:01.746Z,15.83
2018-06-12T09:43:31.112Z,13.57
2018-06-12T09:46:00.569Z,13.93
2018-06-12T09:48:29.948Z,14.87
2018-06-12T09:50:59.364Z,12.50
2018-06-12T09:53:28.748Z,14.73
2018-06-12T09:55:58.141Z,19.23
2018-06-12T09:58:27.529Z,14.07
2018-06-12T10:01:01.966Z,8.43
2018-06-12T10:03:31.524Z,21.50
2018-06-12T10:06:00.877Z,16.13
2018-06-12T10:08:30.293Z,19.33
2018-06-12T10:10:59.691Z,21.07
2018-06-12T10:13:30.239Z,16.77
2018-06-12T10:15:59.676Z,23.20
2018-06-12T10:18:29.416Z,31.13
2018-06-12T10:20:58.997Z,20.00
2018-06-12T10:23:28.394Z,17.43
2018-06-12T10:25:58.843Z,28.80
2018-06-12T10:28:28.337Z,18.97
2018-06-12T10:30:57.728Z,17.73
2018-06-12T10:33:27.151Z,17.83
2018-06-12T10:35:56.580Z,14.67
2018-06-12T10:38:26.083Z,21.60
2018-06-12T10:40:55.560Z,24.10
2018-06-12T10:43:25.095Z,19.80
2018-06-12T10:45:54.675Z,13.63
2018-06-12T10:48:24.067Z,12.50
2018-06-12T10:50:53.435Z,13.17
2018-06-12T10:53:22.329Z,10.57
2018-06-12T10:55:51.216Z,14.67
2018-06-12T10:58:20.164Z,37.47
2018-06-12T11:00:49.591Z,14.00
2018-06-12T11:03:19.100Z,9.50
2018-06-12T11:05:48.642Z,14.07
2018-06-12T11:08:18.102Z,9.30
2018-06-12T11:10:47.539Z,10.37
2018-06-12T11:13:17.113Z,7.47
2018-06-12T11:15:46.546Z,16.87
2018-06-12T11:18:15.914Z,19.77
2018-06-12T11:20:45.343Z,16.40
2018-06-12T11:23:15.505Z,21.37
2018-06-12T11:25:44.873Z,18.23
2018-06-12T11:28:13.732Z,22.63
2018-06-12T11:30:43.148Z,16.43
2018-06-12T11:33:12.633Z,20.10
2018-06-12T11:35:42.127Z,14.77
2018-06-12T11:38:11.608Z,21.97
2018-06-12T11:40:40.961Z,23.10
2018-06-12T11:43:10.482Z,20.67
2018-06-12T11:45:39.882Z,17.73
2018-06-12T11:48:09.080Z,16.03
2018-06-12T11:50:38.518Z,25.33
2018-06-12T11:53:07.843Z,19.67
2018-06-12T11:55:37.317Z,18.47
2018-06-12T11:58:06.666Z,20.37
2018-06-12T12:00:36.329Z,13.13
2018-06-12T12:03:06.789Z,23.20
2018-06-12T12:05:36.347Z,18.13
2018-06-12T12:08:06.206Z,29.33
2018-06-12T12:10:35.608Z,27.40
2018-06-12T12:13:05.078Z,25.77
2018-06-12T12:15:34.504Z,16.00
2018-06-12T12:18:03.924Z,20.70
2018-06-12T12:20:33.363Z,15.63
2018-06-12T12:23:02.822Z,15.80
2018-06-12T12:25:32.252Z,18.80
2018-06-12T12:28:01.627Z,17.33
2018-06-12T12:30:31.109Z,13.53
2018-06-12T12:33:00.441Z,17.33
2018-06-12T12:35:29.871Z,21.60
2018-06-12T12:37:59.243Z,16.80
2018-06-12T12:40:28.631Z,18.63
2018-06-12T12:42:58.023Z,11.00
2018-06-12T12:45:27.459Z,16.07
2018-06-12T12:47:56.832Z,13.60
2018-06-12T12:50:26.190Z,24.43
2018-06-12T12:52:55.003Z,18.63
2018-06-12T12:55:24.384Z,20.03
2018-06-12T12:57:53.845Z,23.30
2018-06-12T13:00:23.178Z,23.63
2018-06-12T13:02:52.042Z,22.87
2018-06-12T13:05:21.381Z,14.73
2018-06-12T13:07:50.784Z,17.20
2018-06-12T13:10:20.182Z,19.53
2018-06-12T13:12:49.012Z,15.30
2018-06-12T13:15:18.387Z,21.33
2018-06-12T13:17:47.802Z,16.67
2018-06-12T13:20:17.260Z,23.90
2018-06-12T13:22:46.660Z,13.00
2018-06-12T13:25:16.034Z,19.30
2018-06-12T13:27:45.364Z,38.03
2018-06-12T13:30:14.789Z,18.53
2018-06-12T13:32:44.685Z,20.13
2018-06-12T13:35:14.054Z,14.80
2018-06-12T13:37:43.485Z,19.83
2018-06-12T13:40:12.928Z,20.77
2018-06-12T13:42:42.317Z,17.73
2018-06-12T13:45:11.799Z,16.57
2018-06-12T13:47:41.143Z,16.73
2018-06-12T13:50:10.604Z,12.50
2018-06-12T13:52:39.935Z,15.23
2018-06-12T13:55:09.259Z,13.80
2018-06-12T13:57:38.598Z,16.57
2018-06-12T14:00:07.968Z,17.70
2018-06-12T14:02:37.361Z,19.67
2018-06-12T14:05:06.930Z,15.33
2018-06-12T14:07:35.785Z,17.13
2018-06-12T14:10:05.261Z,22.23
2018-06-12T14:12:34.679Z,17.50
2018-06-12T14:15:04.142Z,17.07
2018-06-12T14:17:33.547Z,22.03
2018-06-12T14:20:02.944Z,20.00
2018-06-12T14:22:32.379Z,25.27
2018-06-12T14:25:01.852Z,14.23
2018-06-12T14:27:31.250Z,24.93
2018-06-12T14:30:00.184Z,18.10
2018-06-12T14:32:29.722Z,13.47
2018-06-12T14:34:59.156Z,14.45
2018-06-12T14:37:28.626Z,19.63
2018-06-12T14:39:58.100Z,19.77
2018-06-12T14:42:27.435Z,24.33
2018-06-12T14:44:56.784Z,20.97
2018-06-12T14:47:26.285Z,12.57
2018-06-12T14:49:55.686Z,25.60
2018-06-12T14:52:25.126Z,11.70
2018-06-12T14:54:54.526Z,22.63
2018-06-12T14:57:23.954Z,11.27
2018-06-12T14:59:53.328Z,17.50
2018-06-12T15:02:22.739Z,25.13
2018-06-12T15:04:52.152Z,15.60
2018-06-12T15:07:21.501Z,18.00
2018-06-12T15:09:50.803Z,22.53
2018-06-12T15:12:20.260Z,18.10
2018-06-12T15:14:49.699Z,13.80
2018-06-12T15:17:19.029Z,21.33
2018-06-12T15:19:48.406Z,17.47
2018-06-12T15:22:17.848Z,21.87
2018-06-12T15:24:47.216Z,12.43
2018-06-12T15:27:16.608Z,17.57
2018-06-12T15:29:45.922Z,16.23
2018-06-12T15:32:15.257Z,23.60
2018-06-12T15:34:45.174Z,20.00
2018-06-12T15:37:14.511Z,16.07
2018-06-12T15:39:43.864Z,14.70
2018-06-12T15:42:13.252Z,23.97
2018-06-12T15:44:42.638Z,22.97
2018-06-12T15:47:11.985Z,24.30
2018-06-12T15:49:41.341Z,17.23
2018-06-12T15:52:10.808Z,13.90
2018-06-12T15:54:40.160Z,18.37
2018-06-12T15:57:09.506Z,21.30
2018-06-12T15:59:38.977Z,19.33
2018-06-12T16:02:08.564Z,16.33
2018-06-12T16:04:37.967Z,15.53
2018-06-12T16:07:07.408Z,16.85
2018-06-12T16:09:36.799Z,20.53
2018-06-12T16:12:06.198Z,16.87
2018-06-12T16:14:35.546Z,17.60
2018-06-12T16:17:04.348Z,12.57
2018-06-12T16:19:33.759Z,17.67
2018-06-12T16:22:03.261Z,21.33
2018-06-12T16:24:33.136Z,11.63
2018-06-12T16:27:02.542Z,11.83
2018-06-12T16:29:31.837Z,12.10
2018-06-12T16:32:01.220Z,18.67
2018-06-12T16:34:30.561Z,10.93
2018-06-12T16:36:59.881Z,13.47
2018-06-12T16:39:29.217Z,16.60
2018-06-12T16:41:58.564Z,15.47
2018-06-12T16:44:27.894Z,15.27
2018-06-12T16:46:57.259Z,23.57
2018-06-12T16:49:26.018Z,21.97
2018-06-12T16:51:55.335Z,11.27
2018-06-12T16:54:24.151Z,22.50
2018-06-12T16:56:53.532Z,15.40
2018-06-12T16:59:22.343Z,14.70
2018-06-12T17:01:51.766Z,15.00
2018-06-12T17:04:21.106Z,20.43
2018-06-12T17:06:50.482Z,17.77
2018-06-12T17:09:19.887Z,27.27
2018-06-12T17:11:49.241Z,20.20
2018-06-12T17:14:18.081Z,20.70
2018-06-12T17:16:47.479Z,31.33
2018-06-12T17:19:16.924Z,14.40
2018-06-12T17:21:45.729Z,13.07
2018-06-12T17:24:15.092Z,19.43
2018-06-12T17:26:44.883Z,18.27
2018-06-12T17:29:14.218Z,15.53
2018-06-12T17:31:43.558Z,8.83
2018-06-12T17:34:12.900Z,9.63
2018-06-12T17:36:42.283Z,26.47
2018-06-12T17:39:11.625Z,17.87
2018-06-12T17:41:40.949Z,13.07
2018-06-12T17:44:11.331Z,12.03
2018-06-12T17:46:40.698Z,13.50
2018-06-12T17:49:10.026Z,13.70
2018-06-12T17:51:39.412Z,13.47
2018-06-12T17:54:08.850Z,12.10
2018-06-12T17:56:38.216Z,19.60
2018-06-12T17:59:07.617Z,17.10
2018-06-12T18:01:36.989Z,16.80
2018-06-12T18:04:06.512Z,13.43
2018-06-12T18:06:35.908Z,10.93
2018-06-12T18:09:06.334Z,16.33
2018-06-12T18:11:35.721Z,16.07
2018-06-12T18:14:05.117Z,28.00
2018-06-12T18:16:34.456Z,22.23
2018-06-12T18:19:03.882Z,27.03
2018-06-12T18:21:33.239Z,20.63
2018-06-12T18:24:02.614Z,39.40
2018-06-12T18:26:31.438Z,18.30
2018-06-12T18:29:00.771Z,22.10
2018-06-12T18:31:30.085Z,20.97
2018-06-12T18:33:59.455Z,21.83
2018-06-12T18:36:28.818Z,19.40
2018-06-12T18:38:57.623Z,17.03
2018-06-12T18:41:27.018Z,45.47
2018-06-12T18:43:56.366Z,22.03
2018-06-12T18:46:26.299Z,19.50
2018-06-12T18:48:55.644Z,26.93
2018-06-12T18:51:24.988Z,20.30
2018-06-12T18:53:54.459Z,16.97
2018-06-12T18:56:23.829Z,22.03
2018-06-12T18:58:52.583Z,23.97
2018-06-12T19:01:21.967Z,27.77
2018-06-12T19:03:51.300Z,29.50
2018-06-12T19:06:20.632Z,22.33
2018-06-12T19:08:50.028Z,20.43
2018-06-12T19:11:19.518Z,29.63
2018-06-12T19:13:48.855Z,28.53
2018-06-12T19:16:18.284Z,24.90
2018-06-12T19:18:47.630Z,23.83
2018-06-12T19:21:16.466Z,29.60
2018-06-12T19:23:45.846Z,28.10
2018-06-12T19:26:15.256Z,21.37
2018-06-12T19:28:44.589Z,25.43
2018-06-12T19:31:14.002Z,25.30
2018-06-12T19:33:43.313Z,38.50
2018-06-12T19:36:12.700Z,28.83
2018-06-12T19:38:42.039Z,20.57
2018-06-12T19:41:11.354Z,22.30
2018-06-12T19:43:40.695Z,30.70
2018-06-12T19:46:10.132Z,28.53
2018-06-12T19:48:39.504Z,24.83
2018-06-12T19:51:08.838Z,34.20
2018-06-12T19:53:38.471Z,23.60
2018-06-12T19:56:09.008Z,18.30
2018-06-12T19:58:38.612Z,21.17
2018-06-12T20:01:07.985Z,20.87
2018-06-12T20:03:37.341Z,28.60
2018-06-12T20:06:06.760Z,35.33
2018-06-12T20:08:36.168Z,27.10
2018-06-12T20:11:05.629Z,37.03
2018-06-12T20:13:35.075Z,27.17
2018-06-12T20:16:04.497Z,41.93
2018-06-12T20:18:33.458Z,39.63
2018-06-12T20:21:03.076Z,36.00
2018-06-12T20:23:32.618Z,22.40
2018-06-12T20:26:02.110Z,29.70
2018-06-12T20:28:30.965Z,24.93
2018-06-12T20:31:00.344Z,27.93
2018-06-12T20:33:29.881Z,35.17
2018-06-12T20:35:59.473Z,23.23
2018-06-12T20:38:28.878Z,39.90
2018-06-12T20:40:58.825Z,27.77
2018-06-12T20:43:27.874Z,22.17
2018-06-12T20:45:57.388Z,25.83
2018-06-12T20:51:09.486Z,27.27
2018-06-12T20:53:43.858Z,25.90
2018-06-12T20:56:13.222Z,36.17
2018-06-12T20:58:42.654Z,29.00
2018-06-12T21:01:12.084Z,32.13
2018-06-12T21:03:41.429Z,44.57
2018-06-12T21:06:10.796Z,23.80
2018-06-12T21:08:45.660Z,37.70
2018-06-12T21:11:15.314Z,22.57
2018-06-12T21:13:44.976Z,33.43
2018-06-12T21:16:15.705Z,40.43
2018-06-12T21:18:45.288Z,30.87
2018-06-12T21:21:14.729Z,33.40
2018-06-12T21:23:44.307Z,30.40
2018-06-12T21:26:13.689Z,37.57
2018-06-12T21:28:43.239Z,21.77
2018-06-12T21:31:12.653Z,29.47
2018-06-12T21:33:42.025Z,24.27
2018-06-12T21:36:11.467Z,25.63
2018-06-12T21:38:40.922Z,34.57
2018-06-12T21:41:10.336Z,25.97
2018-06-12T21:43:39.815Z,38.83
2018-06-12T21:46:09.207Z,23.00
2018-06-12T21:48:38.687Z,35.10
2018-06-12T21:51:07.555Z,23.43
2018-06-12T21:53:37.061Z,22.70
2018-06-12T21:56:06.665Z,30.43
2018-06-12T21:58:36.287Z,29.10
2018-06-12T22:01:06.022Z,27.73
2018-06-12T22:03:35.797Z,33.40
2018-06-12T22:06:05.402Z,29.03
2018-06-12T22:08:34.777Z,33.80
2018-06-12T22:11:04.144Z,28.87
2018-06-12T22:13:34.792Z,33.10
2018-06-12T22:16:04.200Z,37.73
2018-06-12T22:18:33.581Z,26.80
2018-06-12T22:21:02.955Z,29.50
2018-06-12T22:23:32.370Z,33.83
2018-06-12T22:26:01.746Z,26.67
2018-06-12T22:28:31.192Z,36.07
2018-06-12T22:31:00.590Z,28.47
2018-06-12T22:33:29.980Z,23.80
2018-06-12T22:35:59.342Z,36.40
2018-06-12T22:38:28.696Z,25.87
2018-06-12T22:40:57.562Z,40.77
2018-06-12T22:43:26.937Z,27.77
2018-06-12T22:45:56.354Z,29.90
2018-06-12T22:48:25.741Z,33.53
2018-06-12T22:50:55.096Z,22.67
2018-06-12T22:53:24.595Z,33.93
2018-06-12T22:55:53.482Z,38.50
2018-06-12T22:58:22.267Z,30.37
2018-06-12T23:00:51.679Z,26.30
2018-06-12T23:03:21.038Z,40.13
2018-06-12T23:05:50.431Z,24.83
2018-06-12T23:08:19.804Z,24.43
2018-06-12T23:10:49.132Z,28.63
2018-06-12T23:13:18.466Z,37.30
2018-06-12T23:15:47.941Z,27.63
2018-06-12T23:18:17.384Z,27.17
2018-06-12T23:21:01.339Z,28.83
2018-06-12T23:23:30.698Z,44.77
2018-06-12T23:26:00.092Z,27.13
2018-06-12T23:28:29.450Z,34.10
2018-06-12T23:30:58.779Z,37.40
2018-06-12T23:33:28.117Z,25.53
2018-06-12T23:35:57.524Z,32.03
2018-06-12T23:38:26.854Z,25.87
2018-06-12T23:40:56.218Z,23.80
2018-06-12T23:43:25.616Z,39.80
2018-06-12T23:45:55.380Z,27.40
2018-06-12T23:48:24.816Z,34.03
2018-06-12T23:50:54.164Z,31.80
2018-06-12T23:53:23.500Z,35.37
2018-06-12T23:55:52.826Z,35.37
2018-06-12T23:58:22.200Z,36.23
